Terminal Aerodrome Forecast
Issued by NWS Twin Cities, MN

Home | Current Version | Previous Version | Graphics & Text | Print | Product List | Glossary On
Versions: 1 2 3 4 5 6 7 8 9 10 11 12 13 14 15 16 17 18 19 20 21 22 23 24 25 26 27 28
000
FTUS43 KMPX 251100 CCA
TAFMSP
TAF COR
KMSP 251132Z 2512/2618 15012KT P6SM SCT020 BKN035
      TEMPO 2512/2514 BKN010
     FM251900 22007KT P6SM BKN040
     FM260200 30005KT P6SM FEW040=

USA.gov is the U.S. government's official web portal to all federal, state and local government web resources and services.